Time;durP1;ratioP1;P1;durP2;ratioP2;P2;SDS_P1;SDS_P2;PMS_P1;PMS_P2;Temp;Humidity;BMP_temperature;BMP_pressure;BME280_temperature;BME280_humidity;BME280_pressure;Samples;Min_cycle;Max_cycle;Signal;HPM_P1;HPM_P2
2022/05/21 00:02:24;;;;;;;9.77;8.67;;;;;;;11.01;83.68;101910.78;6248739;23;20266;-81
2022/05/21 00:04:49;;;;;;;10.55;8.52;;;;;;;11.02;83.81;101910.66;6274893;22;20247;-80
2022/05/21 00:07:15;;;;;;;12.15;7.70;;;;;;;11.00;83.59;101907.25;6274892;22;19998;-82
2022/05/21 00:09:40;;;;;;;14.50;7.88;;;;;;;10.99;84.00;101912.66;6249081;23;19988;-82
2022/05/21 00:12:06;;;;;;;10.13;7.65;;;;;;;10.98;83.67;101919.78;6274833;22;19999;-82
2022/05/21 00:14:34;;;;;;;10.13;7.85;;;;;;;10.99;84.04;101917.97;6274992;22;19995;-81
2022/05/21 00:17:00;;;;;;;10.13;7.07;;;;;;;10.99;83.65;101915.31;6274899;22;19985;-81
2022/05/21 00:19:25;;;;;;;8.45;7.32;;;;;;;10.99;83.80;101921.50;6248884;22;20040;-82
2022/05/21 00:21:50;;;;;;;9.63;7.07;;;;;;;10.98;83.73;101916.28;6273997;22;19995;-82
2022/05/21 00:24:16;;;;;;;9.80;6.68;;;;;;;11.00;83.50;101919.69;6273107;22;20018;-82
2022/05/21 00:26:41;;;;;;;9.45;7.90;;;;;;;10.98;83.93;101917.13;6274012;22;19988;-82
2022/05/21 00:29:06;;;;;;;8.40;6.50;;;;;;;10.98;83.31;101916.28;6274732;22;19996;-81
2022/05/21 00:31:32;;;;;;;12.07;6.85;;;;;;;10.93;83.91;101917.41;6274520;22;19988;-82
2022/05/21 00:33:57;;;;;;;8.50;6.40;;;;;;;10.96;83.55;101926.13;6274713;22;20004;-83
2022/05/21 00:36:23;;;;;;;10.15;6.63;;;;;;;10.95;84.17;101932.41;6274642;22;20001;-82
2022/05/21 00:38:48;;;;;;;6.97;6.13;;;;;;;10.93;83.45;101925.38;6248481;22;20275;-81
2022/05/21 00:41:16;;;;;;;11.80;6.28;;;;;;;10.91;83.74;101926.44;6247958;22;20044;-82
2022/05/21 00:43:59;;;;;;;11.65;5.75;;;;;;;10.93;84.33;101922.72;6248732;22;19992;-82
2022/05/21 00:46:27;;;;;;;10.38;6.15;;;;;;;10.92;83.72;101930.78;6274477;22;19994;-82
2022/05/21 00:49:05;;;;;;;11.30;5.10;;;;;;;10.96;83.85;101926.13;6274620;22;20056;-81
2022/05/21 00:51:37;;;;;;;7.82;5.03;;;;;;;10.95;84.33;101930.59;6274633;22;19999;-82
2022/05/21 00:54:05;;;;;;;10.32;5.38;;;;;;;10.96;84.33;101934.09;6274509;22;19992;-82
2022/05/21 00:56:34;;;;;;;11.43;5.30;;;;;;;11.00;84.59;101928.50;6275826;22;19996;-82
2022/05/21 01:01:49;;;;;;;11.68;5.45;;;;;;;11.07;84.11;101929.00;6277055;22;19926;-82
2022/05/21 01:04:15;;;;;;;8.20;4.55;;;;;;;11.05;83.65;101925.56;6276366;22;20000;-81
2022/05/21 01:06:40;;;;;;;7.78;4.43;;;;;;;11.07;84.19;101926.34;6276820;22;19995;-81
2022/05/21 01:09:06;;;;;;;6.43;4.93;;;;;;;11.07;83.73;101924.56;6276601;22;19992;-80
2022/05/21 01:11:32;;;;;;;6.43;4.20;;;;;;;11.09;84.01;101929.75;6275423;22;19988;-83
2022/05/21 01:13:58;;;;;;;6.22;4.43;;;;;;;11.11;84.03;101922.56;6276022;22;19999;-82
2022/05/21 01:16:24;;;;;;;7.45;4.28;;;;;;;11.12;83.89;101926.91;6276592;22;19996;-82
2022/05/21 01:18:50;;;;;;;9.98;4.20;;;;;;;11.13;84.46;101918.00;6276378;22;20023;-82
2022/05/21 01:21:15;;;;;;;8.32;4.15;;;;;;;11.16;83.45;101925.78;6275980;22;20000;-82
2022/05/21 01:23:40;;;;;;;6.75;4.13;;;;;;;11.20;83.95;101918.47;6274821;22;20055;-82
2022/05/21 01:26:20;;;;;;;9.52;4.75;;;;;;;11.21;83.83;101920.19;6248569;22;20003;-83
2022/05/21 01:28:45;;;;;;;;;;;;;;;11.29;82.58;101917.88;6276715;22;20007;-82
2022/05/21 01:31:10;;;;;;;5.88;3.67;;;;;;;11.26;83.59;101915.44;6276602;22;19919;-82
2022/05/21 01:33:39;;;;;;;8.73;3.92;;;;;;;11.26;84.02;101913.63;6276399;22;19995;-81
2022/05/21 01:36:06;;;;;;;11.02;4.00;;;;;;;11.29;83.61;101915.22;6276465;22;20048;-82
2022/05/21 01:38:33;;;;;;;11.98;4.03;;;;;;;11.29;83.26;101913.44;6276186;22;19999;-82
2022/05/21 01:40:58;;;;;;;10.38;4.13;;;;;;;11.29;84.23;101910.78;6276261;22;19992;-81
2022/05/21 01:46:10;;;;;;;10.10;3.78;;;;;;;11.33;84.00;101910.59;6276507;22;20011;-82
2022/05/21 01:48:35;;;;;;;7.55;3.95;;;;;;;11.35;83.55;101911.34;6275902;22;20007;-80
2022/05/21 01:51:00;;;;;;;9.57;4.32;;;;;;;11.36;83.62;101905.03;6275936;22;19992;-82
2022/05/21 01:53:27;;;;;;;14.02;4.28;;;;;;;11.35;84.00;101904.19;6276419;22;19992;-81
2022/05/21 01:55:55;;;;;;;10.32;4.10;;;;;;;11.35;83.70;101909.53;6249922;23;19996;-82
2022/05/21 01:58:20;;;;;;;10.60;4.50;;;;;;;11.37;83.80;101907.59;6250084;22;20047;-81
2022/05/21 02:00:46;;;;;;;11.85;4.18;;;;;;;11.38;83.90;101906.66;6276226;22;20003;-81
2022/05/21 02:03:13;;;;;;;12.27;5.03;;;;;;;11.38;83.74;101908.47;6274437;22;20027;-83
2022/05/21 02:05:39;;;;;;;8.73;4.20;;;;;;;11.40;83.63;101909.22;6274027;22;19996;-82
2022/05/21 02:08:05;;;;;;;12.27;4.28;;;;;;;11.40;83.74;101907.41;6273584;22;19996;-82
2022/05/21 02:10:32;;;;;;;8.95;4.25;;;;;;;11.41;83.47;101914.47;6274119;22;20023;-81
2022/05/21 02:12:58;;;;;;;11.25;3.80;;;;;;;11.43;84.11;101919.69;6274231;22;20016;-82
2022/05/21 02:15:23;;;;;;;10.27;4.35;;;;;;;11.42;84.05;101920.63;6275784;22;20019;-81
2022/05/21 02:17:49;;;;;;;7.85;3.97;;;;;;;11.44;83.69;101916.94;6275919;22;20014;-81
2022/05/21 02:20:14;;;;;;;9.88;4.10;;;;;;;11.45;83.55;101926.59;6275898;22;19992;-81
2022/05/21 02:22:39;;;;;;;12.98;4.10;;;;;;;11.47;83.51;101918.53;6275811;22;19988;-82
2022/05/21 02:25:07;;;;;;;11.57;3.85;;;;;;;11.44;83.66;101916.94;6275786;22;19992;-82
2022/05/21 02:27:33;;;;;;;10.50;3.97;;;;;;;11.48;83.44;101920.25;6275823;22;20050;-81
2022/05/21 02:29:58;;;;;;;10.20;3.97;;;;;;;11.47;83.63;101918.53;6275884;22;20000;-81
2022/05/21 02:32:24;;;;;;;11.80;4.13;;;;;;;11.48;83.79;101923.75;6275910;22;19992;-81
2022/05/21 02:34:49;;;;;;;12.32;4.05;;;;;;;11.48;83.63;101918.44;6275732;22;20000;-82
2022/05/21 02:39:58;;;;;;;10.02;4.20;;;;;;;11.53;83.75;101917.31;6275895;22;20039;-81
2022/05/21 02:45:08;;;;;;;9.73;4.22;;;;;;;11.53;83.51;101909.31;6275697;22;20250;-80
2022/05/21 02:47:34;;;;;;;10.63;4.47;;;;;;;11.53;83.51;101920.81;6274387;22;20004;-83
2022/05/21 02:49:59;;;;;;;8.77;4.10;;;;;;;11.53;83.34;101918.16;6273856;22;19996;-82
2022/05/21 02:52:24;;;;;;;10.43;3.83;;;;;;;11.55;83.26;101926.03;6247545;22;20000;-82
2022/05/21 02:54:50;;;;;;;10.07;4.20;;;;;;;11.54;83.79;101921.66;6275659;22;20062;-82
2022/05/21 02:57:15;;;;;;;9.50;4.18;;;;;;;11.56;83.70;101917.97;6275581;22;20000;-82
2022/05/21 02:59:41;;;;;;;8.15;3.78;;;;;;;11.57;83.74;101914.31;6275355;22;19993;-81
2022/05/21 03:02:07;;;;;;;11.80;4.43;;;;;;;11.58;83.41;101917.88;6275615;22;19997;-82
2022/05/21 03:04:33;;;;;;;9.00;4.40;;;;;;;11.58;83.00;101921.38;6249237;23;20067;-81
2022/05/21 03:06:59;;;;;;;12.38;4.63;;;;;;;11.57;83.49;101917.00;6275352;22;20036;-82
2022/05/21 03:12:10;;;;;;;14.13;4.68;;;;;;;11.59;83.51;101923.09;6275340;22;20002;-80
2022/05/21 03:14:35;;;;;;;13.40;4.60;;;;;;;11.59;83.26;101928.41;6275220;23;20020;-81
2022/05/21 03:17:01;;;;;;;13.68;4.65;;;;;;;11.56;83.83;101920.63;6275294;22;19999;-81
2022/05/21 03:19:28;;;;;;;11.20;4.40;;;;;;;11.58;83.35;101916.06;6275071;22;20006;-80
2022/05/21 03:21:53;;;;;;;13.52;4.93;;;;;;;11.57;83.60;101921.47;6275082;22;20016;-81
2022/05/21 03:24:18;;;;;;;12.23;5.00;;;;;;;11.58;83.71;101913.38;6274864;22;19996;-82
2022/05/21 03:26:44;;;;;;;13.70;5.00;;;;;;;11.59;83.52;101915.09;6273977;22;20255;-81
2022/05/21 03:29:09;;;;;;;9.90;4.57;;;;;;;11.59;83.81;101914.22;6274012;22;20301;-81
2022/05/21 03:31:34;;;;;;;12.45;4.63;;;;;;;11.60;83.59;101921.28;6274331;22;20241;-82
2022/05/21 03:33:59;;;;;;;13.73;5.15;;;;;;;11.60;83.80;101922.13;6274410;22;20012;-81
2022/05/21 03:36:25;;;;;;;11.47;4.93;;;;;;;11.60;83.79;101919.47;6274108;22;20012;-81
2022/05/21 03:38:51;;;;;;;14.90;5.82;;;;;;;11.62;83.92;101922.03;6248338;22;20235;-82
2022/05/21 03:41:16;;;;;;;9.43;5.05;;;;;;;11.61;83.68;101925.66;6275000;22;19988;-81
2022/05/21 03:43:41;;;;;;;9.75;4.57;;;;;;;11.61;83.76;101931.81;6274611;22;20012;-81
2022/05/21 03:46:07;;;;;;;10.93;4.70;;;;;;;11.62;83.60;101930.88;6274200;22;20038;-81
2022/05/21 03:48:32;;;;;;;15.48;5.20;;;;;;;11.60;83.60;101926.59;6248710;23;20243;-82
2022/05/21 03:50:58;;;;;;;12.00;4.97;;;;;;;11.61;83.80;101929.16;6274416;22;19996;-82
2022/05/21 03:53:23;;;;;;;14.82;5.32;;;;;;;11.60;84.16;101932.75;6275052;22;20018;-82
2022/05/21 03:55:48;;;;;;;13.50;4.50;;;;;;;11.61;84.11;101931.81;6274836;22;19995;-81
2022/05/21 03:58:15;;;;;;;12.60;5.10;;;;;;;11.60;84.09;101934.56;6273740;23;20227;-81
2022/05/21 04:00:40;;;;;;;17.25;5.32;;;;;;;11.58;84.02;101933.84;6273582;23;20326;-80
2022/05/21 04:03:06;;;;;;;15.02;4.78;;;;;;;11.60;84.13;101939.91;6273754;23;20004;-79
2022/05/21 04:05:32;;;;;;;12.85;4.75;;;;;;;11.62;83.97;101940.66;6273556;23;20064;-81
2022/05/21 04:07:57;;;;;;;15.45;5.00;;;;;;;11.59;84.26;101936.41;6272633;22;19988;-81
2022/05/21 04:10:22;;;;;;;15.80;5.57;;;;;;;11.60;83.97;101940.75;6273264;22;20004;-81
2022/05/21 04:12:48;;;;;;;13.05;5.20;;;;;;;11.62;83.49;101946.84;6273344;22;20003;-81
2022/05/21 04:15:14;;;;;;;14.25;5.55;;;;;;;11.62;84.10;101954.84;6273051;22;20056;-81
2022/05/21 04:17:40;;;;;;;15.52;5.43;;;;;;;11.62;83.77;101945.97;6273274;22;19996;-82
2022/05/21 04:20:08;;;;;;;11.85;5.68;;;;;;;11.61;84.36;101946.94;6272920;22;20003;-81
2022/05/21 04:22:34;;;;;;;13.97;5.77;;;;;;;11.64;84.16;101946.72;6273270;22;20008;-80
2022/05/21 04:24:59;;;;;;;16.98;5.38;;;;;;;11.64;84.22;101947.59;6274697;22;19998;-81
2022/05/21 04:27:25;;;;;;;17.45;5.63;;;;;;;11.64;84.15;101944.94;6274801;22;20007;-82
2022/05/21 04:29:50;;;;;;;10.07;5.53;;;;;;;11.66;84.14;101953.66;6274414;22;20000;-82
2022/05/21 04:32:16;;;;;;;12.07;5.90;;;;;;;11.68;84.45;101952.72;6274234;22;20015;-81
2022/05/21 04:34:41;;;;;;;14.00;5.90;;;;;;;11.69;84.25;101960.63;6248991;23;20020;-81
2022/05/21 04:37:07;;;;;;;12.05;5.82;;;;;;;11.71;84.21;101957.84;6274577;23;20010;-81
2022/05/21 04:39:32;;;;;;;16.23;6.03;;;;;;;11.71;83.63;101961.38;6274702;22;19988;-81
2022/05/21 04:42:00;;;;;;;20.30;6.90;;;;;;;11.74;84.18;101962.97;6274693;22;19988;-82
2022/05/21 04:44:30;;;;;;;16.95;6.68;;;;;;;11.73;84.08;101961.28;6274695;22;20000;-82
2022/05/21 04:46:56;;;;;;;12.05;6.28;;;;;;;11.72;84.32;101967.53;6274555;22;19999;-83
2022/05/21 04:49:21;;;;;;;16.35;6.95;;;;;;;11.72;83.83;101972.84;6274747;22;19992;-82
2022/05/21 04:51:46;;;;;;;15.90;6.43;;;;;;;11.72;83.85;101970.19;6248480;22;20015;-82
2022/05/21 04:54:12;;;;;;;19.50;6.50;;;;;;;11.74;84.21;101963.84;6274881;22;20231;-82
2022/05/21 04:56:37;;;;;;;16.67;7.17;;;;;;;11.72;83.85;101965.72;6274648;22;20227;-81
2022/05/21 04:59:03;;;;;;;18.13;6.97;;;;;;;11.72;84.03;101964.88;6273863;22;20305;-82
2022/05/21 05:01:30;;;;;;;12.25;6.07;;;;;;;11.76;84.14;101966.41;6273724;22;19993;-82
2022/05/21 05:03:55;;;;;;;17.80;6.85;;;;;;;11.78;83.85;101970.66;6273329;22;20003;-82
2022/05/21 05:06:21;;;;;;;17.00;7.90;;;;;;;11.80;84.34;101971.41;6273774;22;19996;-81
2022/05/21 05:08:46;;;;;;;17.60;8.48;;;;;;;11.80;84.08;101970.56;6274349;22;20016;-81
2022/05/21 05:11:11;;;;;;;16.03;8.83;;;;;;;11.80;84.09;101975.88;6273945;22;19993;-81
2022/05/21 05:13:36;;;;;;;18.33;8.73;;;;;;;11.85;84.55;101982.63;6274663;22;20294;-81
2022/05/21 05:16:02;;;;;;;26.23;9.87;;;;;;;11.91;85.01;101984.09;6274594;22;19999;-80
2022/05/21 05:18:30;;;;;;;16.65;8.65;;;;;;;11.94;84.46;101989.22;6274503;22;20231;-80
2022/05/21 05:20:56;;;;;;;24.17;9.37;;;;;;;11.95;84.14;101988.25;6274564;22;19995;-80
2022/05/21 05:23:21;;;;;;;20.77;8.45;;;;;;;11.97;84.12;101988.16;6274415;22;20036;-79
2022/05/21 05:25:46;;;;;;;19.00;9.18;;;;;;;11.99;83.89;101989.78;6274514;22;20072;-81
2022/05/21 05:28:19;;;;;;;19.40;9.18;;;;;;;12.03;84.17;101993.94;6274348;23;20004;-80
2022/05/21 05:30:46;;;;;;;19.08;10.05;;;;;;;12.08;84.13;102001.63;6274629;22;20018;-81
2022/05/21 05:33:12;;;;;;;21.13;9.50;;;;;;;12.08;83.49;101998.97;6274619;22;20015;-81
2022/05/21 05:35:38;;;;;;;24.50;10.82;;;;;;;12.13;84.12;102002.19;6274499;22;20004;-80
2022/05/21 05:38:09;;;;;;;29.30;10.90;;;;;;;12.14;84.37;102008.38;6274326;22;19992;-81
2022/05/21 05:40:35;;;;;;;18.88;9.20;;;;;;;12.16;84.10;102011.81;6274368;22;20000;-82
2022/05/21 05:43:01;;;;;;;18.42;10.00;;;;;;;12.19;84.59;102007.13;6275814;22;20000;-81
2022/05/21 05:45:27;;;;;;;21.50;9.70;;;;;;;12.26;84.33;102007.59;6276136;22;20019;-80
2022/05/21 05:47:52;;;;;;;19.25;8.98;;;;;;;12.35;84.67;102003.47;6250367;22;19996;-80
2022/05/21 05:50:18;;;;;;;24.25;10.38;;;;;;;12.38;84.03;102000.59;6276021;22;19996;-82
2022/05/21 05:52:43;;;;;;;20.20;11.10;;;;;;;12.39;83.49;102013.81;6276058;22;20039;-81
2022/05/21 05:55:09;;;;;;;22.63;10.60;;;;;;;12.37;83.05;102010.41;6275987;22;20016;-80
2022/05/21 05:57:34;;;;;;;19.02;9.75;;;;;;;12.39;83.17;102012.97;6276011;22;20014;-80
2022/05/21 05:59:59;;;;;;;22.02;10.35;;;;;;;12.40;83.38;102010.19;6249788;23;19992;-79
2022/05/21 06:05:17;;;;;;;21.60;11.32;;;;;;;12.49;83.01;102013.19;6275925;22;20030;-80
2022/05/21 06:07:49;;;;;;;29.17;11.13;;;;;;;12.50;82.14;102018.44;6275611;22;20000;-79
2022/05/21 06:10:18;;;;;;;25.52;11.18;;;;;;;12.54;82.99;102013.75;6273045;22;20050;-80
2022/05/21 06:12:43;;;;;;;;;;;;;;;12.67;82.23;102013.78;6275424;22;20011;-79
2022/05/21 06:15:10;;;;;;;22.25;12.25;;;;;;;12.68;82.83;102012.84;6275215;22;19919;-80
2022/05/21 06:17:37;;;;;;;22.63;12.95;;;;;;;12.73;82.39;102008.91;6274635;22;20022;-80
2022/05/21 06:20:04;;;;;;;30.20;12.82;;;;;;;12.82;82.57;102017.25;6248773;22;20000;-80
2022/05/21 06:22:33;;;;;;;23.98;11.65;;;;;;;12.86;82.05;102029.44;6274590;22;20026;-80
2022/05/21 06:24:59;;;;;;;22.88;11.77;;;;;;;12.88;82.17;102028.34;6273458;22;20015;-79
2022/05/21 06:27:25;;;;;;;25.55;11.52;;;;;;;12.90;81.29;102026.41;6274276;22;20019;-80
2022/05/21 06:29:50;;;;;;;24.60;12.27;;;;;;;13.02;81.33;102031.88;6274489;22;19988;-79
2022/05/21 06:32:15;;;;;;;22.33;12.53;;;;;;;13.13;81.18;102029.34;6275068;22;20008;-79
2022/05/21 06:34:42;;;;;;;23.85;11.77;;;;;;;13.37;82.13;102037.50;6274143;22;20254;-80
2022/05/21 06:37:11;;;;;;;23.92;11.77;;;;;;;13.64;80.86;102031.22;6273605;22;20000;-80
2022/05/21 06:39:37;;;;;;;26.25;13.02;;;;;;;13.87;79.84;102033.09;6273335;22;19999;-80
2022/05/21 06:42:03;;;;;;;31.42;13.60;;;;;;;14.14;79.31;102033.84;6272744;22;20004;-81
2022/05/21 06:44:29;;;;;;;23.88;12.45;;;;;;;14.39;79.73;102031.13;6273631;22;19988;-81
2022/05/21 06:46:56;;;;;;;26.88;12.18;;;;;;;14.51;77.71;102042.72;6273590;22;20095;-80
2022/05/21 06:49:21;;;;;;;23.48;11.75;;;;;;;14.48;75.29;102048.28;6247451;22;20035;-81
2022/05/21 06:51:48;;;;;;;23.40;11.57;;;;;;;14.44;75.85;102047.66;6274091;22;20008;-75
2022/05/21 06:54:13;;;;;;;27.65;12.23;;;;;;;14.45;76.02;102040.47;6248225;23;20011;-77
2022/05/21 06:56:40;;;;;;;23.73;11.90;;;;;;;14.43;75.84;102043.25;6274349;22;19996;-78
2022/05/21 06:59:05;;;;;;;27.65;12.70;;;;;;;14.41;75.05;102039.88;6274532;22;20003;-77
2022/05/21 07:01:31;;;;;;;26.97;13.00;;;;;;;14.41;75.30;102039.03;6273311;22;19996;-77
2022/05/21 07:03:56;;;;;;;28.83;13.02;;;;;;;14.39;75.28;102043.63;6273420;22;20254;-77
2022/05/21 07:09:06;;;;;;;24.05;12.38;;;;;;;14.31;75.34;102052.19;6273782;22;20072;-79
2022/05/21 07:11:32;;;;;;;26.30;13.60;;;;;;;14.31;75.35;102054.03;6274139;22;20020;-78
2022/05/21 07:13:57;;;;;;;21.85;12.18;;;;;;;14.28;75.12;102060.44;6274769;22;20035;-80
2022/05/21 07:16:23;;;;;;;24.05;13.85;;;;;;;14.30;75.45;102065.66;6248148;23;20004;-78
2022/05/21 07:18:48;;;;;;;27.80;13.20;;;;;;;14.31;76.53;102068.25;6274886;22;20016;-78
2022/05/21 07:21:15;;;;;;;27.33;12.90;;;;;;;14.34;75.26;102072.50;6274420;22;20015;-78
2022/05/21 07:23:41;;;;;;;26.23;13.45;;;;;;;14.38;75.91;102074.00;6274417;22;20020;-78
2022/05/21 07:26:07;;;;;;;27.75;13.43;;;;;;;14.41;74.66;102068.41;6274282;22;20004;-76
2022/05/21 07:28:32;;;;;;;24.15;12.80;;;;;;;14.43;74.37;102075.34;6272562;23;20004;-77
2022/05/21 07:30:58;;;;;;;23.50;12.13;;;;;;;14.42;74.63;102070.97;6274316;22;20000;-76
2022/05/21 07:33:25;;;;;;;26.02;13.50;;;;;;;14.56;75.64;102069.97;6273658;22;20000;-77
2022/05/21 07:35:51;;;;;;;27.13;13.65;;;;;;;14.68;75.68;102075.41;6274094;22;20020;-78
2022/05/21 07:38:16;;;;;;;23.58;12.00;;;;;;;14.78;73.97;102071.06;6273108;22;20023;-79
2022/05/21 07:40:44;;;;;;;21.42;12.48;;;;;;;14.87;74.27;102073.06;6248059;23;20011;-79
2022/05/21 07:43:16;;;;;;;22.23;11.88;;;;;;;14.89;73.33;102076.47;6274363;22;19992;-79
2022/05/21 07:45:42;;;;;;;24.63;12.00;;;;;;;15.16;73.15;102072.66;6273974;22;20007;-79
2022/05/21 07:48:13;;;;;;;21.65;11.73;;;;;;;15.54;72.42;102066.16;6273345;22;20016;-79
2022/05/21 07:50:40;;;;;;;25.52;11.90;;;;;;;15.92;71.59;102081.06;6272733;22;19992;-80
2022/05/21 07:53:29;;;;;;;28.30;12.55;;;;;;;16.24;72.18;102069.59;6274180;22;19995;-78
2022/05/21 07:55:56;;;;;;;24.02;11.80;;;;;;;16.32;69.28;102071.63;6247701;22;20000;-79
2022/05/21 07:58:23;;;;;;;23.83;10.73;;;;;;;16.49;68.14;102072.91;6274191;22;19997;-78
2022/05/21 08:00:49;;;;;;;19.20;9.07;;;;;;;16.67;66.63;102083.97;6274079;22;19996;-79
2022/05/21 08:03:15;;;;;;;21.20;10.07;;;;;;;16.65;66.87;102090.34;6273558;22;20054;-80
2022/05/21 08:05:41;;;;;;;17.63;8.27;;;;;;;16.66;66.10;102085.81;6273274;22;20016;-79
2022/05/21 08:08:08;;;;;;;18.38;8.32;;;;;;;16.62;64.74;102084.34;6273474;22;20249;-78
2022/05/21 08:10:35;;;;;;;19.30;8.43;;;;;;;16.74;64.58;102094.06;6273998;22;20015;-79
2022/05/21 08:13:03;;;;;;;23.48;9.75;;;;;;;16.96;65.38;102097.69;6274067;22;19992;-79
2022/05/21 08:15:29;;;;;;;23.60;9.85;;;;;;;17.23;64.49;102094.47;6272111;22;20008;-79
2022/05/21 08:17:55;;;;;;;22.20;9.57;;;;;;;17.63;64.58;102099.09;6244538;23;20000;-79
2022/05/21 08:20:21;;;;;;;22.80;10.13;;;;;;;17.98;63.31;102097.06;6269164;23;20034;-78
2022/05/21 08:28:19;;;;;;;22.20;9.95;;;;;;;18.95;59.79;102093.72;6272377;22;20078;-79
2022/05/21 08:30:47;;;;;;;20.90;9.60;;;;;;;18.79;58.67;102092.41;6269859;22;20056;-79
2022/05/21 08:33:14;;;;;;;17.23;9.45;;;;;;;18.91;57.91;102095.84;6271564;23;20043;-80
2022/05/21 08:35:40;;;;;;;19.35;8.52;;;;;;;19.03;58.65;102100.09;6274005;22;20031;-80
2022/05/21 08:38:09;;;;;;;17.77;8.77;;;;;;;18.92;56.79;102100.25;6274375;22;19995;-81
2022/05/21 08:40:50;;;;;;;19.95;8.32;;;;;;;18.76;58.84;102097.22;6274076;22;19988;-80
2022/05/21 08:43:20;;;;;;;21.60;8.52;;;;;;;18.82;58.23;102104.75;6273983;22;19998;-81
2022/05/21 08:46:15;;;;;;;18.58;8.80;;;;;;;19.11;59.36;102099.38;6273575;22;19992;-80
2022/05/21 08:48:48;;;;;;;19.30;8.13;;;;;;;19.18;58.52;102097.78;6273713;22;20035;-81
2022/05/21 08:51:18;;;;;;;16.55;8.07;;;;;;;19.18;57.42;102091.56;6273753;22;19999;-80
2022/05/21 08:53:49;;;;;;;18.13;8.50;;;;;;;19.23;58.51;102091.97;6274239;22;19999;-78
2022/05/21 08:56:15;;;;;;;22.63;8.77;;;;;;;19.02;57.13;102092.16;6247974;22;20003;-79
2022/05/21 08:58:46;;;;;;;17.85;8.68;;;;;;;19.10;58.58;102088.75;6273966;22;20015;-77
2022/05/21 09:01:15;;;;;;;21.85;8.18;;;;;;;19.34;56.00;102089.13;6274039;22;20000;-80
2022/05/21 09:03:42;;;;;;;;;;;;;;;19.66;59.58;102090.59;6274454;22;20068;-79
2022/05/21 09:06:16;;;;;;;18.77;6.93;;;;;;;19.63;56.56;102093.59;6274152;22;19895;-80
2022/05/21 09:08:48;;;;;;;26.13;7.95;;;;;;;19.45;54.38;102090.84;6274202;22;19992;-80
2022/05/21 09:11:49;;;;;;;16.73;7.60;;;;;;;19.67;56.29;102086.94;6274316;22;19997;-79
2022/05/21 09:14:14;;;;;;;15.85;6.72;;;;;;;19.78;55.50;102085.91;6194725;22;20012;-80
2022/05/21 09:16:54;;;;;;;12.60;6.65;;;;;;;19.98;55.51;102085.84;6274090;22;20047;-78
2022/05/21 09:19:23;;;;;;;15.52;6.32;;;;;;;20.33;54.97;102079.69;6274887;22;19992;-77
2022/05/21 09:22:04;;;;;;;13.23;6.33;;;;;;;20.58;55.74;102072.69;6275111;22;19996;-77
2022/05/21 09:24:41;;;;;;;16.20;6.32;;;;;;;20.60;53.67;102064.44;6249179;22;19996;-80
2022/05/21 09:27:20;;;;;;;15.40;5.55;;;;;;;20.66;53.47;102066.56;6275665;22;20004;-80
2022/05/21 09:29:52;;;;;;;15.80;5.55;;;;;;;20.51;53.03;102068.91;6270933;22;20048;-80
2022/05/21 09:32:22;;;;;;;15.13;5.32;;;;;;;20.44;50.71;102065.97;6249364;22;20007;-79
2022/05/21 09:35:06;;;;;;;14.70;4.65;;;;;;;20.51;53.15;102069.75;6275330;22;19988;-79
2022/05/21 09:37:32;;;;;;;12.27;4.13;;;;;;;20.38;49.50;102082.75;6275152;22;20012;-79
2022/05/21 09:39:58;;;;;;;15.77;5.00;;;;;;;20.48;50.07;102071.91;6275069;22;20064;-79
2022/05/21 09:45:24;;;;;;;13.40;4.70;;;;;;;20.15;50.93;102088.59;6275547;22;20007;-80
2022/05/21 09:48:06;;;;;;;13.68;4.55;;;;;;;19.73;51.99;102086.34;6274865;22;19996;-79
2022/05/21 09:50:48;;;;;;;13.43;4.47;;;;;;;19.75;53.72;102087.06;6274719;22;20006;-79
2022/05/21 09:53:38;;;;;;;9.60;4.28;;;;;;;19.60;53.17;102091.19;6274683;22;19996;-79
2022/05/21 09:56:07;;;;;;;15.88;4.90;;;;;;;19.76;53.23;102094.16;6274814;22;20004;-79
2022/05/21 09:58:39;;;;;;;9.68;4.38;;;;;;;19.86;52.60;102090.56;6274590;22;19996;-80
2022/05/21 10:01:07;;;;;;;18.02;5.43;;;;;;;19.88;52.13;102085.88;6275330;22;20018;-80
2022/05/21 10:03:47;;;;;;;19.05;5.80;;;;;;;20.02;52.88;102085.41;6275280;22;19996;-79
2022/05/21 10:06:22;;;;;;;13.75;5.28;;;;;;;20.02;51.87;102085.41;6275493;22;20008;-79
2022/05/21 10:11:51;;;;;;;11.20;5.65;;;;;;;19.94;52.89;102099.63;6275313;22;20039;-78
2022/05/21 10:14:22;;;;;;;14.38;6.05;;;;;;;20.02;52.42;102098.88;6275428;22;20011;-79
2022/05/21 10:17:05;;;;;;;13.82;6.22;;;;;;;20.18;53.63;102095.53;6275331;22;20063;-78
2022/05/21 10:20:08;;;;;;;15.05;5.40;;;;;;;20.26;52.48;102097.47;6275239;22;20014;-79
2022/05/21 10:22:53;;;;;;;17.83;6.53;;;;;;;20.07;53.32;102098.44;6275547;22;19995;-82
2022/05/21 10:25:21;;;;;;;17.35;7.07;;;;;;;19.90;52.87;102094.66;6275361;22;19988;-81
2022/05/21 10:28:05;;;;;;;16.23;7.37;;;;;;;19.89;53.21;102090.28;6275049;22;19992;-81
2022/05/21 10:31:24;;;;;;;13.75;7.18;;;;;;;20.00;54.40;102098.19;6273896;22;20044;-82
2022/05/21 10:34:16;;;;;;;14.70;7.00;;;;;;;19.91;52.83;102086.44;6212194;22;19992;-83
2022/05/21 10:36:57;;;;;;;13.50;5.82;;;;;;;20.10;52.55;102096.28;6274527;22;19994;-82
2022/05/21 10:39:53;;;;;;;13.25;4.72;;;;;;;20.15;52.36;102090.41;6272911;22;20008;-81
2022/05/21 10:42:48;;;;;;;14.05;5.03;;;;;;;20.17;51.15;102096.53;6274776;22;19999;-81
2022/05/21 10:45:22;;;;;;;11.15;4.68;;;;;;;20.29;52.46;102102.56;6248628;22;20020;-81
2022/05/21 10:47:49;;;;;;;13.93;5.38;;;;;;;20.46;50.17;102101.75;6274572;22;19999;-81
2022/05/21 10:50:22;;;;;;;12.82;5.70;;;;;;;20.55;50.76;102100.00;6274482;22;20022;-82
2022/05/21 10:52:57;;;;;;;14.13;4.55;;;;;;;20.55;50.36;102099.13;6274415;22;20015;-81
2022/05/21 10:55:52;;;;;;;8.75;3.67;;;;;;;20.76;50.98;102094.31;6273522;22;20012;-79
2022/05/21 10:58:23;;;;;;;9.55;3.50;;;;;;;20.99;48.76;102094.69;6269473;22;20026;-81
2022/05/21 11:01:13;;;;;;;14.77;4.05;;;;;;;21.15;50.71;102099.41;6238623;23;20019;-79
2022/05/21 11:03:58;;;;;;;11.25;3.70;;;;;;;21.06;49.63;102101.16;6273256;22;20000;-80
2022/05/21 11:06:51;;;;;;;7.45;3.40;;;;;;;21.28;49.14;102096.28;6275143;22;20004;-80
2022/05/21 11:09:35;;;;;;;10.32;3.30;;;;;;;21.23;49.41;102101.31;6274244;22;19992;-78
2022/05/21 11:12:05;;;;;;;10.38;3.58;;;;;;;21.11;48.77;102114.22;6242285;23;20014;-77
2022/05/21 11:14:33;;;;;;;11.88;3.80;;;;;;;21.16;49.36;102111.88;6269345;23;20008;-78
2022/05/21 11:17:36;;;;;;;12.30;4.13;;;;;;;21.29;49.00;102105.25;6271606;23;20007;-77
2022/05/21 11:20:06;;;;;;;13.45;4.00;;;;;;;21.42;47.49;102098.41;6271938;23;20010;-79
2022/05/21 11:22:44;;;;;;;9.93;3.40;;;;;;;21.58;48.51;102103.13;6273745;23;19999;-78
2022/05/21 11:25:19;;;;;;;9.63;2.90;;;;;;;21.87;47.07;102099.22;6273869;22;20008;-78
2022/05/21 11:27:56;;;;;;;9.85;3.20;;;;;;;21.84;46.42;102101.41;6273942;23;20235;-78
2022/05/21 11:30:22;;;;;;;11.35;3.13;;;;;;;21.83;46.11;102105.09;6274109;22;20027;-79
2022/05/21 11:38:39;;;;;;;8.23;3.40;;;;;;;21.86;46.84;102107.47;6268238;23;20018;-78
2022/05/21 11:47:13;;;;;;;8.45;3.13;;;;;;;22.25;44.80;102094.28;6264825;22;20019;-77
2022/05/21 11:49:45;;;;;;;10.30;3.22;;;;;;;22.14;45.17;102089.19;6267131;23;20000;-77
2022/05/21 11:52:32;;;;;;;11.35;3.55;;;;;;;22.34;46.89;102093.31;6268619;23;20000;-77
2022/05/21 11:54:57;;;;;;;9.23;3.67;;;;;;;22.20;44.24;102093.06;6267106;23;20429;-78
2022/05/21 11:57:28;;;;;;;10.53;3.73;;;;;;;22.27;44.35;102086.84;6264952;23;20000;-79
2022/05/21 11:59:54;;;;;;;8.75;3.42;;;;;;;22.33;45.44;102082.66;6267297;23;20019;-79
2022/05/21 12:02:21;;;;;;;6.75;2.70;;;;;;;22.32;44.58;102087.22;6264099;23;20012;-79
2022/05/21 12:04:50;;;;;;;9.77;3.83;;;;;;;22.52;44.47;102082.38;6264040;23;20091;-79
2022/05/21 12:07:36;;;;;;;16.17;3.70;;;;;;;22.60;44.73;102078.84;6265153;23;20051;-79
2022/05/21 12:10:09;;;;;;;12.52;3.65;;;;;;;22.76;43.59;102075.28;6263065;23;20008;-79